DWI245 SULS-SABE
Flight info
| Callsign | DWI245 |
|---|---|
| Flight time | N/A |
| Altitude | 34000 |
| Route | DAGUS DCT UGIMI UGIMI8Q |
| Aircraft | B738/M-SDE2E3FGHIRWXY/LB1 |
Departure
| Time | 2026-04-24 23:38 |
|---|---|
| Airport | Capitan Corbeta CA Curbelo International Airport (SULS) |
Arrival
| Time | N/A |
|---|---|
| Airport | Aeroparque Jorge Newbery (SABE) |
| Time | Latitude | Longitude | Altitude | Speed | Heading |
|---|---|---|---|---|---|
| 2026-04-24 23:26 | -34.85972 | -55.09890 | 97 ft | 0 kts | 164° |
| 2026-04-24 23:27 | -34.85964 | -55.09893 | 97 ft | 2 kts | 164° |
| 2026-04-24 23:27 | -34.85950 | -55.09898 | 97 ft | 1 kts | 164° |
| 2026-04-24 23:27 | -34.85941 | -55.09901 | 97 ft | 2 kts | 154° |
| 2026-04-24 23:28 | -34.85929 | -55.09912 | 96 ft | 2 kts | 129° |
| 2026-04-24 23:28 | -34.85921 | -55.09928 | 96 ft | 2 kts | 106° |
| 2026-04-24 23:28 | -34.85919 | -55.09946 | 96 ft | 2 kts | 84° |
| 2026-04-24 23:28 | -34.85921 | -55.09956 | 96 ft | 1 kts | 71° |
| 2026-04-24 23:29 | -34.85923 | -55.09962 | 96 ft | 0 kts | 71° |
| 2026-04-24 23:32 | -34.85918 | -55.09947 | 95 ft | 2 kts | 71° |
| 2026-04-24 23:32 | -34.85910 | -55.09918 | 95 ft | 4 kts | 71° |
| 2026-04-24 23:32 | -34.85900 | -55.09880 | 95 ft | 4 kts | 71° |
| 2026-04-24 23:33 | -34.85882 | -55.09843 | 95 ft | 5 kts | 40° |
| 2026-04-24 23:33 | -34.85844 | -55.09837 | 95 ft | 5 kts | 352° |
| 2026-04-24 23:33 | -34.85830 | -55.09837 | 95 ft | 5 kts | 17° |
| 2026-04-24 23:33 | -34.85802 | -55.09810 | 93 ft | 7 kts | 55° |
| 2026-04-24 23:34 | -34.85776 | -55.09738 | 91 ft | 10 kts | 71° |
| 2026-04-24 23:34 | -34.85751 | -55.09646 | 90 ft | 11 kts | 72° |
| 2026-04-24 23:34 | -34.85726 | -55.09552 | 90 ft | 11 kts | 73° |
| 2026-04-24 23:34 | -34.85708 | -55.09482 | 89 ft | 0 kts | 70° |
| 2026-04-24 23:35 | -34.85702 | -55.09465 | 89 ft | 3 kts | 70° |
| 2026-04-24 23:35 | -34.85688 | -55.09425 | 88 ft | 6 kts | 56° |
| 2026-04-24 23:35 | -34.85632 | -55.09406 | 86 ft | 13 kts | 356° |
| 2026-04-24 23:35 | -34.85517 | -55.09377 | 83 ft | 22 kts | 51° |
| 2026-04-24 23:36 | -34.85450 | -55.09169 | 80 ft | 30 kts | 75° |
| 2026-04-24 23:36 | -34.85436 | -55.09018 | 79 ft | 3 kts | 45° |
| 2026-04-24 23:36 | -34.85426 | -55.09046 | 79 ft | 4 kts | 266° |
| 2026-04-24 23:36 | -34.85430 | -55.09066 | 79 ft | 0 kts | 252° |
| 2026-04-24 23:37 | -34.85473 | -55.09219 | 81 ft | 60 kts | 250° |
| 2026-04-24 23:38 | -34.85692 | -55.10041 | 90 ft | 137 kts | 252° |
| 2026-04-24 23:38 | -34.85988 | -55.11117 | 99 ft | 128 kts | 249° |
| 2026-04-24 23:38 | -34.86396 | -55.12288 | 273 ft | 177 kts | 245° |
| 2026-04-24 23:38 | -34.86981 | -55.13629 | 1260 ft | 186 kts | 233° |
| 2026-04-24 23:39 | -34.87976 | -55.14548 | 2160 ft | 199 kts | 198° |
| 2026-04-24 23:39 | -34.88339 | -55.14662 | 2411 ft | 202 kts | 187° |
| 2026-04-24 23:39 | -34.89702 | -55.14406 | 3395 ft | 209 kts | 152° |
| 2026-04-24 23:39 | -34.90850 | -55.13269 | 4218 ft | 222 kts | 134° |
| 2026-04-24 23:40 | -34.92176 | -55.12197 | 4970 ft | 244 kts | 158° |
| 2026-04-24 23:40 | -34.93905 | -55.11965 | 5861 ft | 259 kts | 189° |
| 2026-04-24 23:40 | -34.95520 | -55.12815 | 7014 ft | 261 kts | 220° |
| 2026-04-24 23:40 | -34.96674 | -55.14522 | 7899 ft | 274 kts | 247° |
| 2026-04-24 23:41 | -34.97070 | -55.16806 | 8853 ft | 283 kts | 275° |
| 2026-04-24 23:41 | -34.96622 | -55.19091 | 10022 ft | 283 kts | 293° |
| 2026-04-24 23:41 | -34.95874 | -55.21327 | 10988 ft | 294 kts | 291° |
| 2026-04-24 23:41 | -34.95325 | -55.23760 | 11797 ft | 311 kts | 281° |
| 2026-04-24 23:42 | -34.95094 | -55.26421 | 12575 ft | 327 kts | 273° |
| 2026-04-24 23:42 | -34.95077 | -55.29288 | 13314 ft | 344 kts | 269° |
| 2026-04-24 23:42 | -34.95152 | -55.32243 | 14105 ft | 358 kts | 268° |
| 2026-04-24 23:42 | -34.95252 | -55.35242 | 15258 ft | 359 kts | 268° |
| 2026-04-24 23:43 | -34.95348 | -55.38272 | 16304 ft | 363 kts | 268° |
| 2026-04-24 23:43 | -34.95436 | -55.41343 | 17334 ft | 367 kts | 269° |
| 2026-04-24 23:43 | -34.95518 | -55.44429 | 18375 ft | 369 kts | 269° |
| 2026-04-24 23:43 | -34.95597 | -55.47536 | 19399 ft | 371 kts | 269° |
| 2026-04-24 23:44 | -34.95674 | -55.50668 | 20384 ft | 373 kts | 269° |
| 2026-04-24 23:44 | -34.95752 | -55.53817 | 21355 ft | 375 kts | 269° |
| 2026-04-24 23:44 | -34.95828 | -55.56988 | 22214 ft | 379 kts | 269° |
| 2026-04-24 23:44 | -34.95904 | -55.60171 | 23071 ft | 382 kts | 269° |
| 2026-04-24 23:45 | -34.95980 | -55.63408 | 23899 ft | 385 kts | 269° |
| 2026-04-24 23:45 | -34.96056 | -55.66664 | 24746 ft | 387 kts | 270° |
| 2026-04-24 23:45 | -34.96132 | -55.69948 | 25441 ft | 393 kts | 270° |
| 2026-04-24 23:45 | -34.96207 | -55.73248 | 26278 ft | 394 kts | 270° |
| 2026-04-24 23:46 | -34.96283 | -55.76622 | 26932 ft | 399 kts | 269° |
| 2026-04-24 23:46 | -34.96358 | -55.79984 | 27656 ft | 402 kts | 269° |
| 2026-04-24 23:46 | -34.96433 | -55.83393 | 28380 ft | 405 kts | 269° |
| 2026-04-24 23:46 | -34.96508 | -55.86839 | 29019 ft | 408 kts | 269° |
| 2026-04-24 23:47 | -34.96582 | -55.90259 | 29698 ft | 411 kts | 269° |
| 2026-04-24 23:47 | -34.96657 | -55.93764 | 30348 ft | 413 kts | 269° |
| 2026-04-24 23:47 | -34.96730 | -55.97237 | 30892 ft | 416 kts | 269° |
| 2026-04-24 23:47 | -34.96802 | -56.00699 | 31853 ft | 406 kts | 270° |
| 2026-04-24 23:48 | -34.96871 | -56.04086 | 32747 ft | 399 kts | 270° |
| 2026-04-24 23:48 | -34.96938 | -56.07421 | 33448 ft | 395 kts | 270° |
| 2026-04-24 23:48 | -34.97004 | -56.10756 | 33943 ft | 395 kts | 270° |
| 2026-04-24 23:48 | -34.97067 | -56.14120 | 34041 ft | 400 kts | 270° |
| 2026-04-24 23:49 | -34.97195 | -56.20850 | 34075 ft | 393 kts | 270° |
| 2026-04-24 23:49 | -34.97317 | -56.27470 | 34065 ft | 391 kts | 270° |
| 2026-04-24 23:50 | -34.97438 | -56.34092 | 34082 ft | 392 kts | 270° |
| 2026-04-24 23:50 | -34.97556 | -56.40716 | 34081 ft | 393 kts | 270° |
| 2026-04-24 23:51 | -34.97669 | -56.47383 | 34054 ft | 393 kts | 270° |
| 2026-04-24 23:51 | -34.97776 | -56.54009 | 34069 ft | 393 kts | 270° |
| 2026-04-24 23:52 | -34.97878 | -56.60659 | 34054 ft | 393 kts | 270° |
| 2026-04-24 23:52 | -34.97981 | -56.67289 | 34064 ft | 393 kts | 270° |
| 2026-04-24 23:53 | -34.98076 | -56.73944 | 34061 ft | 393 kts | 270° |
| 2026-04-24 23:53 | -34.98172 | -56.80588 | 34062 ft | 395 kts | 270° |
| 2026-04-24 23:54 | -34.98265 | -56.87271 | 34047 ft | 394 kts | 270° |
| 2026-04-24 23:54 | -34.98299 | -56.93904 | 34059 ft | 394 kts | 271° |
| 2026-04-24 23:55 | -34.98258 | -57.00580 | 34060 ft | 393 kts | 271° |
| 2026-04-24 23:55 | -34.98218 | -57.07242 | 34050 ft | 395 kts | 271° |
| 2026-04-24 23:56 | -34.98184 | -57.13913 | 34043 ft | 392 kts | 271° |
| 2026-04-24 23:56 | -34.98150 | -57.20562 | 34052 ft | 395 kts | 271° |
| 2026-04-24 23:57 | -34.98112 | -57.27203 | 34053 ft | 393 kts | 271° |
| 2026-04-24 23:57 | -34.98071 | -57.33892 | 34027 ft | 394 kts | 271° |
| 2026-04-24 23:58 | -34.98023 | -57.40490 | 34053 ft | 394 kts | 271° |
| 2026-04-24 23:58 | -34.97975 | -57.47173 | 34048 ft | 392 kts | 271° |
| 2026-04-24 23:59 | -34.97923 | -57.53800 | 34041 ft | 393 kts | 271° |
| 2026-04-24 23:59 | -34.97869 | -57.60425 | 34068 ft | 392 kts | 271° |
| 2026-04-25 00:00 | -34.97807 | -57.67070 | 34061 ft | 394 kts | 271° |
| 2026-04-25 00:00 | -34.97773 | -57.70404 | 33896 ft | 388 kts | 271° |
| 2026-04-25 00:00 | -34.97742 | -57.73642 | 33369 ft | 383 kts | 271° |
| 2026-04-25 00:01 | -34.97712 | -57.76846 | 32683 ft | 382 kts | 271° |
| 2026-04-25 00:01 | -34.97683 | -57.80096 | 31888 ft | 383 kts | 271° |
| 2026-04-25 00:01 | -34.97651 | -57.83327 | 31049 ft | 385 kts | 271° |
| 2026-04-25 00:01 | -34.97581 | -57.86563 | 30134 ft | 389 kts | 273° |
| 2026-04-25 00:02 | -34.97348 | -57.89838 | 29139 ft | 392 kts | 278° |
| 2026-04-25 00:02 | -34.96829 | -57.93109 | 28162 ft | 394 kts | 283° |
| 2026-04-25 00:02 | -34.96137 | -57.96294 | 27289 ft | 394 kts | 284° |
| 2026-04-25 00:02 | -34.95376 | -57.99468 | 26686 ft | 387 kts | 285° |
| 2026-04-25 00:03 | -34.94616 | -58.02579 | 26050 ft | 381 kts | 285° |
| 2026-04-25 00:03 | -34.93875 | -58.05630 | 25395 ft | 378 kts | 285° |
| 2026-04-25 00:03 | -34.93131 | -58.08720 | 24733 ft | 387 kts | 285° |
| 2026-04-25 00:03 | -34.92368 | -58.11908 | 24018 ft | 396 kts | 285° |
| 2026-04-25 00:04 | -34.91597 | -58.15133 | 23292 ft | 393 kts | 285° |
| 2026-04-25 00:04 | -34.90845 | -58.18282 | 22582 ft | 387 kts | 285° |
| 2026-04-25 00:04 | -34.90100 | -58.21402 | 21882 ft | 383 kts | 285° |
| 2026-04-25 00:04 | -34.89359 | -58.24506 | 21182 ft | 379 kts | 285° |
| 2026-04-25 00:05 | -34.88636 | -58.27535 | 20498 ft | 374 kts | 285° |
| 2026-04-25 00:05 | -34.87911 | -58.30567 | 19779 ft | 371 kts | 286° |
| 2026-04-25 00:05 | -34.87201 | -58.33532 | 19106 ft | 367 kts | 286° |
| 2026-04-25 00:05 | -34.86495 | -58.36480 | 18441 ft | 363 kts | 286° |
| 2026-04-25 00:06 | -34.85794 | -58.39405 | 17774 ft | 360 kts | 286° |
| 2026-04-25 00:06 | -34.85092 | -58.42334 | 17095 ft | 356 kts | 286° |
| 2026-04-25 00:06 | -34.84402 | -58.45206 | 16439 ft | 353 kts | 286° |
| 2026-04-25 00:06 | -34.83720 | -58.48042 | 15778 ft | 350 kts | 286° |
| 2026-04-25 00:07 | -34.82980 | -58.50819 | 15128 ft | 348 kts | 290° |
| 2026-04-25 00:07 | -34.81910 | -58.53428 | 14474 ft | 346 kts | 302° |
| 2026-04-25 00:07 | -34.80292 | -58.55667 | 13840 ft | 356 kts | 316° |
| 2026-04-25 00:07 | -34.78377 | -58.57637 | 13181 ft | 366 kts | 319° |
| 2026-04-25 00:08 | -34.76386 | -58.59546 | 12491 ft | 364 kts | 320° |
| 2026-04-25 00:08 | -34.74396 | -58.61434 | 11813 ft | 360 kts | 320° |
| 2026-04-25 00:08 | -34.72440 | -58.63306 | 11221 ft | 353 kts | 320° |
| 2026-04-25 00:08 | -34.70544 | -58.65136 | 10887 ft | 340 kts | 320° |
| 2026-04-25 00:09 | -34.68729 | -58.66898 | 10738 ft | 323 kts | 320° |
| 2026-04-25 00:09 | -34.67018 | -58.68565 | 10599 ft | 308 kts | 320° |
| 2026-04-25 00:09 | -34.65396 | -58.70149 | 10457 ft | 294 kts | 320° |
| 2026-04-25 00:09 | -34.63835 | -58.71672 | 10312 ft | 282 kts | 319° |
| 2026-04-25 00:10 | -34.62328 | -58.73145 | 10096 ft | 274 kts | 319° |
| 2026-04-25 00:10 | -34.60850 | -58.74587 | 9726 ft | 272 kts | 319° |
| 2026-04-25 00:10 | -34.59388 | -58.76013 | 9363 ft | 270 kts | 320° |
| 2026-04-25 00:10 | -34.57917 | -58.77440 | 8998 ft | 268 kts | 321° |
| 2026-04-25 00:11 | -34.56333 | -58.78627 | 8560 ft | 270 kts | 336° |
| 2026-04-25 00:11 | -34.54501 | -58.79011 | 8310 ft | 267 kts | 2° |
| 2026-04-25 00:11 | -34.52734 | -58.78392 | 7849 ft | 271 kts | 27° |
| 2026-04-25 00:11 | -34.51155 | -58.77110 | 7465 ft | 271 kts | 37° |
| 2026-04-25 00:12 | -34.49747 | -58.75619 | 7105 ft | 269 kts | 43° |
| 2026-04-25 00:12 | -34.48487 | -58.73980 | 6708 ft | 267 kts | 49° |
| 2026-04-25 00:12 | -34.47385 | -58.72171 | 6168 ft | 264 kts | 57° |
| 2026-04-25 00:12 | -34.46509 | -58.70264 | 5670 ft | 260 kts | 64° |
| 2026-04-25 00:13 | -34.45856 | -58.68192 | 5459 ft | 284 kts | 73° |
| 2026-04-25 00:13 | -34.45477 | -58.65767 | 5126 ft | 293 kts | 87° |
| 2026-04-25 00:13 | -34.45557 | -58.63352 | 4764 ft | 277 kts | 95° |
| 2026-04-25 00:13 | -34.45810 | -58.61102 | 4279 ft | 269 kts | 100° |
| 2026-04-25 00:14 | -34.46343 | -58.58957 | 3785 ft | 264 kts | 114° |
| 2026-04-25 00:14 | -34.47242 | -58.57037 | 3132 ft | 265 kts | 122° |
| 2026-04-25 00:14 | -34.48258 | -58.55188 | 2578 ft | 261 kts | 123° |
| 2026-04-25 00:14 | -34.49257 | -58.53432 | 2172 ft | 252 kts | 123° |
| 2026-04-25 00:15 | -34.50231 | -58.51706 | 1852 ft | 243 kts | 123° |
| 2026-04-25 00:15 | -34.51178 | -58.50020 | 1503 ft | 242 kts | 123° |
| 2026-04-25 00:15 | -34.52128 | -58.48331 | 1172 ft | 241 kts | 123° |
| 2026-04-25 00:15 | -34.53065 | -58.46661 | 844 ft | 239 kts | 123° |
| 2026-04-25 00:16 | -34.53954 | -58.45079 | 551 ft | 215 kts | 123° |
| 2026-04-25 00:16 | -34.54745 | -58.43671 | 306 ft | 186 kts | 124° |
| 2026-04-25 00:16 | -34.55389 | -58.42477 | 263 ft | 149 kts | 124° |
| 2026-04-25 00:16 | -34.55869 | -58.41610 | 426 ft | 113 kts | 122° |
| 2026-04-25 00:17 | -34.56335 | -58.40803 | 366 ft | 124 kts | 126° |
| 2026-04-25 00:17 | -34.56867 | -58.39941 | 943 ft | 128 kts | 125° |
| 2026-04-25 00:17 | -34.57379 | -58.39075 | 1598 ft | 133 kts | 127° |
| 2026-04-25 00:17 | -34.57946 | -58.38146 | 2025 ft | 154 kts | 116° |
| 2026-04-25 00:18 | -34.58336 | -58.36874 | 2118 ft | 164 kts | 101° |
| 2026-04-25 00:18 | -34.58723 | -58.35524 | 2123 ft | 165 kts | 110° |
| 2026-04-25 00:18 | -34.59095 | -58.34186 | 2098 ft | 181 kts | 107° |
| 2026-04-25 00:18 | -34.59546 | -58.32737 | 1911 ft | 171 kts | 102° |
| 2026-04-25 00:19 | -34.59719 | -58.31307 | 2392 ft | 168 kts | 95° |
| 2026-04-25 00:19 | -34.59775 | -58.29985 | 2869 ft | 172 kts | 73° |
| 2026-04-25 00:19 | -34.59217 | -58.28486 | 2519 ft | 221 kts | 66° |
| 2026-04-25 00:19 | -34.58974 | -58.26568 | 2287 ft | 235 kts | 95° |
| 2026-04-25 00:20 | -34.59571 | -58.24814 | 2267 ft | 225 kts | 128° |
| 2026-04-25 00:20 | -34.60497 | -58.23316 | 2277 ft | 222 kts | 127° |
| 2026-04-25 00:20 | -34.61529 | -58.21928 | 2317 ft | 221 kts | 127° |
| 2026-04-25 00:20 | -34.62547 | -58.20504 | 2353 ft | 223 kts | 129° |
| 2026-04-25 00:21 | -34.63530 | -58.19022 | 2415 ft | 223 kts | 126° |
| 2026-04-25 00:21 | -34.63982 | -58.17252 | 1479 ft | 258 kts | 68° |